METAR Data
IDs: Format: Raw Decoded Include TAF

Data at: 2111 UTC 18 Apr 2021

KDFI 182053Z AUTO 00000KT 10SM -RA BKN075 OVC090 15/02 A2987 RMK AO2 RAB45 SLP115 P0000 60000 T01500017 58010